Time;durP1;ratioP1;P1;durP2;ratioP2;P2;SDS_P1;SDS_P2;PMS_P1;PMS_P2;Temp;Humidity;BMP_temperature;BMP_pressure;BME280_temperature;BME280_humidity;BME280_pressure;Samples;Min_cycle;Max_cycle;Signal;HPM_P1;HPM_P2
2021/08/03 00:02:23;;;;;;;0.10;0.10;;;;;;;17.77;59.11;101584.56;5016179;28;20034;-88
2021/08/03 00:04:55;;;;;;;0.00;0.00;;;;;;;17.75;58.11;101579.25;5012754;28;20596;-87
2021/08/03 00:07:23;;;;;;;0.10;0.10;;;;;;;17.74;59.10;101576.63;5010656;28;20113;-87
2021/08/03 00:09:51;;;;;;;0.10;0.10;;;;;;;17.73;58.66;101572.19;5010797;28;20469;-87
2021/08/03 00:12:18;;;;;;;0.05;0.05;;;;;;;17.69;58.79;101574.13;5011569;28;20045;-88
2021/08/03 00:14:47;;;;;;;0.00;0.00;;;;;;;17.68;58.94;101567.00;5013103;28;20378;-88
2021/08/03 00:17:16;;;;;;;0.00;0.00;;;;;;;17.69;58.59;101573.25;5013065;28;20117;-88
2021/08/03 00:19:44;;;;;;;0.10;0.10;;;;;;;17.66;59.10;101578.72;5013046;28;20065;-88
2021/08/03 00:22:11;;;;;;;0.10;0.10;;;;;;;17.64;59.07;101570.75;5012993;28;20135;-88
2021/08/03 00:24:39;;;;;;;0.10;0.10;;;;;;;17.64;58.96;101565.38;5012833;28;20393;-87
2021/08/03 00:27:06;;;;;;;0.52;0.52;;;;;;;17.63;58.72;101575.25;5012801;28;20088;-87
2021/08/03 00:29:35;;;;;;;0.10;0.10;;;;;;;17.62;59.14;101561.91;5012890;28;20022;-88
2021/08/03 00:32:04;;;;;;;0.10;0.10;;;;;;;17.60;59.50;101553.91;5013137;28;20500;-88
2021/08/03 00:34:30;;;;;;;0.10;0.10;;;;;;;17.61;59.00;101563.69;5012833;28;20033;-87
2021/08/03 00:36:59;;;;;;;0.10;0.10;;;;;;;17.58;59.02;101561.16;5012390;28;20069;-88
2021/08/03 00:39:25;;;;;;;0.10;0.10;;;;;;;17.60;59.46;101563.75;5012509;28;20076;-88
2021/08/03 00:41:56;;;;;;;0.10;0.10;;;;;;;17.61;59.13;101565.50;5012559;28;20057;-88
2021/08/03 00:44:44;;;;;;;0.08;0.08;;;;;;;17.64;59.34;101565.38;5012893;28;20036;-86
2021/08/03 00:47:12;;;;;;;0.10;0.10;;;;;;;17.54;59.45;101559.50;4998494;28;20025;-88
2021/08/03 00:49:39;;;;;;;0.10;0.10;;;;;;;17.53;59.59;101554.19;5012873;28;20022;-88
2021/08/03 00:52:08;;;;;;;0.10;0.10;;;;;;;17.51;59.53;101556.94;5012607;28;20033;-88
2021/08/03 00:54:35;;;;;;;0.20;0.20;;;;;;;17.51;59.59;101558.72;5012739;28;20068;-88
2021/08/03 00:57:01;;;;;;;0.00;0.00;;;;;;;17.51;59.59;101558.72;5012111;28;20511;-88
2021/08/03 00:59:29;;;;;;;0.00;0.00;;;;;;;17.52;59.51;101550.66;5012593;28;20025;-88
2021/08/03 01:01:56;;;;;;;0.10;0.10;;;;;;;17.56;59.19;101554.09;5012298;28;20119;-88
2021/08/03 01:04:23;;;;;;;0.00;0.00;;;;;;;17.56;59.23;101554.09;5012383;28;20381;-88
2021/08/03 01:12:57;;;;;;;0.10;0.10;;;;;;;17.67;59.18;101549.19;5051451;28;20482;-88
2021/08/03 01:15:32;;;;;;;0.10;0.10;;;;;;;17.64;59.02;101549.31;5036916;28;20412;-88
2021/08/03 01:18:28;;;;;;;0.32;0.32;;;;;;;17.64;59.49;101543.94;5038669;28;20026;-88
2021/08/03 01:21:34;;;;;;;0.00;0.00;;;;;;;17.67;59.01;101549.19;5027542;28;20037;-88
2021/08/03 01:27:31;;;;;;;0.10;0.10;;;;;;;17.62;59.49;101551.19;5097236;27;20774;-89
2021/08/03 01:29:59;;;;;;;0.10;0.10;;;;;;;17.56;59.22;101546.91;5110034;28;20032;-88
2021/08/03 01:32:30;;;;;;;0.00;0.00;;;;;;;17.58;59.62;101536.13;5110264;28;20085;-88
2021/08/03 01:34:59;;;;;;;0.00;0.00;;;;;;;17.60;59.06;101537.81;5096149;28;20736;-88
2021/08/03 01:37:29;;;;;;;0.10;0.10;;;;;;;17.60;59.42;101536.97;5091911;28;20060;-88
2021/08/03 01:40:01;;;;;;;0.10;0.10;;;;;;;17.61;59.60;101534.22;5091767;28;20024;-88
2021/08/03 01:42:29;;;;;;;0.10;0.10;;;;;;;17.61;59.13;101528.00;5091372;28;20123;-88
2021/08/03 01:45:00;;;;;;;0.10;0.10;;;;;;;17.62;58.82;101535.09;5109932;28;20056;-89
2021/08/03 01:47:29;;;;;;;0.10;0.10;;;;;;;17.60;59.40;101537.81;5109730;28;20479;-88
2021/08/03 01:49:57;;;;;;;0.10;0.10;;;;;;;17.60;59.22;101531.59;5109728;28;20364;-89
2021/08/03 01:52:23;;;;;;;0.00;0.00;;;;;;;17.59;59.45;101535.22;5109494;28;20020;-88
2021/08/03 01:54:51;;;;;;;0.10;0.10;;;;;;;17.60;59.09;101531.59;5109814;28;20036;-86
2021/08/03 01:57:21;;;;;;;0.03;0.03;;;;;;;17.61;59.41;101534.22;5109700;28;20387;-89
2021/08/03 01:59:48;;;;;;;0.10;0.10;;;;;;;17.59;59.63;101538.75;5109963;28;20046;-88
2021/08/03 02:02:17;;;;;;;0.10;0.10;;;;;;;17.60;59.38;101537.81;5109520;28;20024;-89
2021/08/03 02:04:45;;;;;;;0.10;0.10;;;;;;;17.59;59.50;101535.22;5109266;28;20467;-89
2021/08/03 02:07:15;;;;;;;0.10;0.10;;;;;;;17.61;59.40;101539.56;5080920;28;20023;-89
2021/08/03 02:09:44;;;;;;;0.00;0.00;;;;;;;17.61;59.83;101534.22;5109763;28;20081;-89
2021/08/03 02:12:11;;;;;;;0.03;0.03;;;;;;;17.61;59.26;101533.34;5109434;28;20048;-88
2021/08/03 02:14:44;;;;;;;0.00;0.00;;;;;;;17.59;59.71;101538.75;5109141;28;20036;-90
2021/08/03 02:17:15;;;;;;;0.10;0.10;;;;;;;17.62;59.63;101535.09;5094571;28;20024;-89
2021/08/03 02:19:42;;;;;;;0.10;0.10;;;;;;;17.57;59.78;101532.59;5109157;28;20111;-90
2021/08/03 02:22:09;;;;;;;0.40;0.40;;;;;;;17.56;59.46;101532.66;5109007;28;20394;-89
2021/08/03 02:24:36;;;;;;;0.85;0.85;;;;;;;17.55;59.58;101530.91;5109032;28;20035;-90
2021/08/03 02:27:03;;;;;;;0.10;0.10;;;;;;;17.53;59.53;101528.25;5108678;28;20023;-89
2021/08/03 02:29:30;;;;;;;0.10;0.10;;;;;;;17.50;59.42;101530.22;5109046;28;20015;-89
2021/08/03 02:32:05;;;;;;;0.00;0.00;;;;;;;17.50;59.67;101535.56;5108826;28;20427;-89
2021/08/03 02:37:33;;;;;;;0.10;0.10;;;;;;;17.41;59.27;101532.31;5051224;28;20514;-89
2021/08/03 02:40:02;;;;;;;0.10;0.10;;;;;;;17.32;59.36;101527.31;5049912;28;20037;-88
2021/08/03 02:42:31;;;;;;;0.10;0.10;;;;;;;17.29;59.88;101532.75;5049447;28;20192;-89
2021/08/03 02:45:02;;;;;;;0.00;0.00;;;;;;;17.28;59.69;101531.91;5047683;28;20026;-89
2021/08/03 02:47:37;;;;;;;0.10;0.10;;;;;;;17.23;59.53;101523.13;5049676;28;20452;-89
2021/08/03 02:50:06;;;;;;;0.10;0.10;;;;;;;17.20;59.86;101528.63;5049246;28;20033;-88
2021/08/03 02:52:37;;;;;;;0.10;0.10;;;;;;;17.17;59.71;101526.06;5049174;28;20491;-88
2021/08/03 02:55:12;;;;;;;0.00;0.00;;;;;;;17.17;59.59;101528.75;5049427;28;20117;-89
2021/08/03 02:57:42;;;;;;;0.10;0.10;;;;;;;17.10;59.65;101527.22;5049375;28;20103;-88
2021/08/03 03:00:09;;;;;;;0.10;0.10;;;;;;;17.07;59.54;101538.03;5049343;28;20138;-89
2021/08/03 03:02:40;;;;;;;0.03;0.03;;;;;;;17.03;59.16;101531.91;5048860;28;20120;-88
2021/08/03 03:05:15;;;;;;;0.10;0.10;;;;;;;17.04;59.38;101528.31;5049094;28;20022;-88
2021/08/03 03:07:49;;;;;;;0.00;0.00;;;;;;;17.01;59.68;101539.13;5049184;28;20025;-88
2021/08/03 03:10:22;;;;;;;0.10;0.10;;;;;;;16.99;59.27;101538.31;5049027;28;20041;-89
2021/08/03 03:13:10;;;;;;;0.00;0.00;;;;;;;17.05;59.25;101535.41;5048798;28;20064;-89
2021/08/03 03:15:39;;;;;;;0.08;0.08;;;;;;;16.97;60.00;101534.78;5048685;28;20412;-89
2021/08/03 03:18:08;;;;;;;0.10;0.10;;;;;;;16.99;59.90;101535.63;5049310;28;20039;-88
2021/08/03 03:20:38;;;;;;;0.10;0.10;;;;;;;17.02;59.52;101532.81;5049072;28;20181;-88
2021/08/03 03:23:06;;;;;;;0.10;0.10;;;;;;;16.99;59.90;101532.94;5048638;28;20074;-89
2021/08/03 03:25:33;;;;;;;0.00;0.00;;;;;;;17.01;60.09;101528.44;5048795;28;20060;-89
2021/08/03 03:28:04;;;;;;;0.10;0.10;;;;;;;17.04;59.74;101533.66;5047597;28;20033;-89
2021/08/03 03:30:32;;;;;;;0.20;0.20;;;;;;;17.04;60.48;101530.13;5048125;28;20029;-89
2021/08/03 03:33:04;;;;;;;0.00;0.00;;;;;;;17.06;59.49;101525.56;5048273;28;20029;-89
2021/08/03 03:35:33;;;;;;;0.10;0.10;;;;;;;17.09;59.71;101528.16;5048294;28;20056;-89
2021/08/03 03:38:00;;;;;;;0.10;0.10;;;;;;;17.07;59.68;101530.88;5048320;28;20531;-89
2021/08/03 03:40:27;;;;;;;0.00;0.00;;;;;;;17.04;59.92;101533.66;5048765;28;20083;-89
2021/08/03 03:42:59;;;;;;;0.10;0.10;;;;;;;17.06;59.92;101530.91;5048507;28;20039;-89
2021/08/03 03:45:26;;;;;;;0.10;0.10;;;;;;;17.01;60.18;101523.06;5048282;28;20148;-90
2021/08/03 03:48:00;;;;;;;0.00;0.00;;;;;;;17.03;59.56;101531.03;5039322;28;20025;-90
2021/08/03 03:50:31;;;;;;;0.00;0.00;;;;;;;16.97;59.52;101518.75;5035054;28;20442;-89
2021/08/03 03:53:08;;;;;;;0.10;0.10;;;;;;;16.98;59.90;101524.06;5033154;28;20473;-90
2021/08/03 03:55:49;;;;;;;0.10;0.10;;;;;;;16.96;59.73;101522.38;5034880;28;20029;-89
2021/08/03 03:58:25;;;;;;;0.10;0.10;;;;;;;16.93;60.07;101517.97;5034708;28;20546;-89
2021/08/03 04:00:54;;;;;;;0.08;0.08;;;;;;;16.88;59.95;101517.22;5034504;28;20052;-89
2021/08/03 04:03:22;;;;;;;0.00;0.00;;;;;;;16.85;59.96;101520.03;5034826;28;20380;-89
2021/08/03 04:05:49;;;;;;;0.10;0.10;;;;;;;16.84;60.16;101520.09;5034693;28;20091;-89
2021/08/03 04:08:19;;;;;;;0.10;0.10;;;;;;;16.81;60.25;101519.25;5034412;28;20468;-90
2021/08/03 04:10:45;;;;;;;0.10;0.10;;;;;;;16.80;60.05;101516.66;5034077;28;20041;-90
2021/08/03 04:13:12;;;;;;;0.10;0.10;;;;;;;16.77;60.10;101517.63;5034602;28;20030;-89
2021/08/03 04:15:47;;;;;;;0.10;0.10;;;;;;;16.81;59.96;101516.59;5034281;28;20057;-90
2021/08/03 04:18:13;;;;;;;0.10;0.10;;;;;;;16.75;59.85;101511.47;5034620;28;20040;-89
2021/08/03 04:20:39;;;;;;;0.10;0.10;;;;;;;16.74;59.95;101512.38;5034447;28;20033;-89
2021/08/03 04:23:06;;;;;;;0.00;0.00;;;;;;;16.74;60.08;101515.06;5034100;28;20690;-89
2021/08/03 04:25:32;;;;;;;1.45;0.30;;;;;;;16.74;60.28;101514.19;5034303;28;20033;-89
2021/08/03 04:28:01;;;;;;;0.10;0.10;;;;;;;16.72;60.03;101516.91;5034554;28;20076;-89
2021/08/03 04:30:27;;;;;;;0.00;0.00;;;;;;;16.73;60.31;101517.78;5034373;28;20061;-89
2021/08/03 04:32:54;;;;;;;0.00;0.00;;;;;;;16.73;60.18;101513.28;5034405;28;20357;-89
2021/08/03 04:35:20;;;;;;;0.10;0.10;;;;;;;16.74;60.28;101515.06;5034443;28;20112;-90
2021/08/03 04:37:49;;;;;;;0.10;0.10;;;;;;;16.78;60.05;101505.97;5034074;28;20381;-90
2021/08/03 04:40:17;;;;;;;0.20;0.20;;;;;;;16.80;60.60;101512.16;5034328;28;20123;-89
2021/08/03 04:42:44;;;;;;;0.10;0.10;;;;;;;16.87;60.13;101514.63;5034405;28;20030;-89
2021/08/03 04:45:10;;;;;;;0.00;0.00;;;;;;;16.87;60.07;101519.97;5018281;28;20088;-89
2021/08/03 04:47:43;;;;;;;0.00;0.00;;;;;;;16.95;60.09;101523.28;5034029;28;20037;-89
2021/08/03 04:50:16;;;;;;;0.10;0.10;;;;;;;16.96;59.96;101515.19;5034255;28;20030;-89
2021/08/03 04:52:45;;;;;;;0.10;0.10;;;;;;;16.98;60.00;101509.78;5034165;28;20556;-89
2021/08/03 04:55:11;;;;;;;0.10;0.10;;;;;;;17.05;60.05;101508.63;5019793;28;20174;-89
2021/08/03 04:57:38;;;;;;;0.08;0.08;;;;;;;17.09;59.65;101510.25;5033689;28;20021;-89
2021/08/03 05:00:06;;;;;;;0.10;0.10;;;;;;;17.14;59.95;101513.63;5032840;28;20030;-89
2021/08/03 05:02:33;;;;;;;0.00;0.00;;;;;;;17.17;59.72;101512.69;5029138;28;20029;-89
2021/08/03 05:05:04;;;;;;;0.03;0.03;;;;;;;17.23;59.84;101506.22;5033929;28;20022;-89
2021/08/03 05:07:30;;;;;;;0.10;0.10;;;;;;;17.24;60.11;101507.97;5033970;28;20036;-87
2021/08/03 05:10:09;;;;;;;0.00;0.00;;;;;;;17.32;59.82;101508.56;5034069;28;20473;-90
2021/08/03 05:12:39;;;;;;;0.43;0.43;;;;;;;17.29;59.35;101505.97;5034250;28;20037;-89
2021/08/03 05:15:07;;;;;;;0.05;0.05;;;;;;;17.33;59.32;101510.28;5034656;28;20473;-90
2021/08/03 05:17:34;;;;;;;0.00;0.00;;;;;;;17.36;59.39;101510.19;5033629;28;20469;-89
2021/08/03 05:20:10;;;;;;;0.00;0.00;;;;;;;17.41;59.90;101505.50;5034276;28;20029;-88
2021/08/03 05:22:36;;;;;;;0.00;0.00;;;;;;;17.44;59.57;101504.53;5032893;28;20052;-90
2021/08/03 05:25:03;;;;;;;0.00;0.00;;;;;;;17.48;59.67;101499.94;5032783;28;20029;-89
2021/08/03 05:27:29;;;;;;;0.75;0.75;;;;;;;17.53;59.60;101497.94;5028877;28;20040;-89
2021/08/03 05:29:56;;;;;;;0.10;0.10;;;;;;;17.56;59.77;101497.84;5033290;28;20484;-88
2021/08/03 05:32:22;;;;;;;0.75;0.43;;;;;;;17.58;59.48;101495.94;5032692;28;20087;-87
2021/08/03 05:34:53;;;;;;;0.00;0.00;;;;;;;17.61;59.82;101499.38;5030573;28;20472;-88
2021/08/03 05:37:19;;;;;;;0.00;0.00;;;;;;;17.61;59.52;101499.38;5031599;28;20044;-88
2021/08/03 05:39:46;;;;;;;0.10;0.10;;;;;;;17.62;59.75;101494.91;5030632;28;20030;-89
2021/08/03 05:42:12;;;;;;;0.10;0.10;;;;;;;17.59;59.42;101486.97;5029957;28;20417;-88
2021/08/03 05:44:45;;;;;;;0.03;0.03;;;;;;;17.56;59.66;101493.34;5033135;28;20037;-91
2021/08/03 05:47:11;;;;;;;0.10;0.10;;;;;;;17.59;59.49;101487.84;5032907;28;20106;-91
2021/08/03 05:49:37;;;;;;;0.40;0.40;;;;;;;17.63;59.45;101499.31;5032703;28;20022;-88
2021/08/03 05:52:04;;;;;;;0.05;0.05;;;;;;;17.64;59.82;101495.72;5032474;28;20476;-89
2021/08/03 05:54:30;;;;;;;0.10;0.10;;;;;;;17.68;59.58;101486.59;5032045;28;20037;-91
2021/08/03 05:56:56;;;;;;;0.17;0.17;;;;;;;17.66;59.48;101491.16;5031140;28;20033;-90
2021/08/03 05:59:23;;;;;;;0.80;0.80;;;;;;;17.68;59.45;101486.59;5032917;28;20026;-93
2021/08/03 06:01:49;;;;;;;0.10;0.10;;;;;;;17.69;59.00;101492.84;5034013;28;20048;-91
2021/08/03 06:04:15;;;;;;;0.00;0.00;;;;;;;17.69;59.30;101493.72;5048566;28;20037;-88
2021/08/03 06:06:43;;;;;;;0.50;0.50;;;;;;;17.72;59.43;101490.94;5051482;28;20089;-89
2021/08/03 06:09:35;;;;;;;0.05;0.05;;;;;;;17.75;59.63;101493.47;5052753;23;20022;-86
2021/08/03 06:12:03;;;;;;;0.05;0.05;;;;;;;17.77;59.79;101488.94;5014089;28;20135;-90
2021/08/03 06:14:36;;;;;;;0.05;0.05;;;;;;;17.84;59.29;101491.38;5033933;28;20057;-89
2021/08/03 06:17:07;;;;;;;0.10;0.10;;;;;;;17.85;59.47;101493.97;5023338;28;20048;-92
2021/08/03 06:19:42;;;;;;;0.00;0.00;;;;;;;17.95;59.56;101489.16;5012513;28;20119;-92
2021/08/03 06:22:12;;;;;;;0.22;0.22;;;;;;;17.90;59.50;101486.63;5007900;28;20124;-92
2021/08/03 06:24:40;;;;;;;0.03;0.03;;;;;;;17.99;59.31;101489.91;4995451;28;20112;-92
2021/08/03 06:27:10;;;;;;;0.10;0.10;;;;;;;18.04;59.30;101483.41;4994076;28;20100;-92
2021/08/03 06:29:38;;;;;;;0.10;0.10;;;;;;;18.09;59.11;101485.91;4993372;28;20053;-93
2021/08/03 06:32:06;;;;;;;0.05;0.05;;;;;;;18.09;59.65;101492.16;4993438;28;20096;-93
2021/08/03 06:34:36;;;;;;;0.10;0.10;;;;;;;18.19;59.10;101489.94;4993971;28;20031;-90
2021/08/03 06:37:03;;;;;;;0.00;0.00;;;;;;;18.21;59.28;101492.59;4993854;28;20044;-93
2021/08/03 06:39:29;;;;;;;0.00;0.00;;;;;;;18.27;59.34;101493.19;4993767;28;20057;-92
2021/08/03 06:42:12;;;;;;;0.00;0.00;;;;;;;18.40;59.00;101493.53;4993831;28;20035;-92
2021/08/03 06:45:05;;;;;;;0.30;0.30;;;;;;;18.51;59.21;101485.03;4993484;28;20031;-93
2021/08/03 06:48:00;;;;;;;0.10;0.10;;;;;;;18.67;58.85;101493.28;4993368;28;20054;-92
2021/08/03 06:50:32;;;;;;;0.00;0.00;;;;;;;18.71;58.84;101485.97;4992788;28;20058;-95
2021/08/03 06:52:59;;;;;;;0.10;0.10;;;;;;;18.79;58.70;101491.00;4993198;28;20098;-91
2021/08/03 06:55:30;;;;;;;0.10;0.10;;;;;;;18.90;58.65;101486.03;4993122;28;20141;-92
2021/08/03 06:58:02;;;;;;;0.17;0.17;;;;;;;19.00;58.89;101490.06;4994612;28;20093;-90
2021/08/03 07:00:40;;;;;;;0.00;0.00;;;;;;;19.12;58.51;101487.78;4994334;28;20478;-89
2021/08/03 07:03:33;;;;;;;0.00;0.00;;;;;;;19.25;58.72;101478.19;4994513;28;20478;-92
2021/08/03 07:06:08;;;;;;;1.55;0.90;;;;;;;19.32;58.00;101479.66;4993189;28;20504;-89
2021/08/03 07:09:13;;;;;;;0.00;0.00;;;;;;;19.43;58.24;101472.91;4988416;28;20117;-90
2021/08/03 07:11:39;;;;;;;0.10;0.10;;;;;;;19.58;57.43;101469.50;4986823;28;20054;-88
2021/08/03 07:14:06;;;;;;;0.10;0.10;;;;;;;19.62;57.10;101476.47;4992093;28;20026;-87
2021/08/03 07:16:34;;;;;;;0.10;0.10;;;;;;;19.63;57.53;101474.66;4991912;28;20046;-88
2021/08/03 07:19:01;;;;;;;0.10;0.10;;;;;;;19.58;57.07;101479.38;4992228;28;20022;-88
2021/08/03 07:21:28;;;;;;;0.10;0.10;;;;;;;19.51;56.97;101482.34;4991675;28;20026;-87
2021/08/03 07:24:10;;;;;;;4.20;1.25;;;;;;;19.64;57.06;101477.28;4995122;28;20033;-88
2021/08/03 07:26:53;;;;;;;0.08;0.08;;;;;;;19.60;57.08;101473.00;4994729;28;20053;-89
2021/08/03 07:29:20;;;;;;;0.47;0.47;;;;;;;19.59;57.27;101476.63;4989374;28;20027;-88
2021/08/03 07:31:47;;;;;;;0.00;0.00;;;;;;;19.63;57.11;101478.22;4994667;28;20029;-87
2021/08/03 07:34:13;;;;;;;0.10;0.10;;;;;;;19.68;56.95;101481.56;4993364;28;20497;-87
2021/08/03 07:36:39;;;;;;;0.10;0.10;;;;;;;19.68;57.01;101486.94;4993035;28;20038;-88
2021/08/03 07:39:07;;;;;;;0.03;0.03;;;;;;;19.78;57.06;101473.06;4986338;28;20065;-89
2021/08/03 07:41:35;;;;;;;0.10;0.10;;;;;;;19.79;55.69;101480.16;4984711;28;20029;-93
2021/08/03 07:44:15;;;;;;;0.08;0.08;;;;;;;19.88;56.35;101477.06;4986788;28;20042;-90
2021/08/03 07:46:43;;;;;;;0.17;0.17;;;;;;;19.87;55.89;101470.78;5012656;23;20121;-87
2021/08/03 07:49:09;;;;;;;0.10;0.10;;;;;;;19.87;55.66;101464.56;5001452;28;20048;-96
2021/08/03 07:51:38;;;;;;;0.73;0.38;;;;;;;19.93;56.15;101474.16;5002548;28;20125;-96
2021/08/03 07:54:10;;;;;;;0.10;0.10;;;;;;;19.95;55.83;101478.50;5144849;23;20032;-95
2021/08/03 07:56:38;;;;;;;0.00;0.00;;;;;;;19.91;56.17;101476.03;5005777;28;20050;-96
2021/08/03 07:59:04;;;;;;;0.10;0.10;;;;;;;19.97;55.87;101476.59;5009324;28;20022;-95
2021/08/03 08:01:57;;;;;;;0.05;0.05;;;;;;;20.01;55.41;101488.97;5010426;28;20505;-96
2021/08/03 08:04:27;;;;;;;0.10;0.10;;;;;;;20.10;55.64;101481.38;5079618;23;20049;-97
2021/08/03 08:06:54;;;;;;;0.10;0.10;;;;;;;20.13;56.12;101492.00;5027671;28;20034;-96
2021/08/03 08:09:20;;;;;;;0.10;0.10;;;;;;;20.19;55.81;101481.78;5005973;28;20030;-95
2021/08/03 08:11:46;;;;;;;0.10;0.10;;;;;;;20.22;55.44;101486.13;5006463;28;20044;-96
2021/08/03 08:14:12;;;;;;;0.10;0.10;;;;;;;20.34;55.28;101490.03;5002856;28;20117;-91
2021/08/03 08:16:39;;;;;;;0.52;0.52;;;;;;;20.43;55.50;101483.31;4995102;28;20054;-88
2021/08/03 08:19:05;;;;;;;0.10;0.10;;;;;;;20.50;54.90;101484.75;4994624;28;20062;-86
2021/08/03 08:21:33;;;;;;;0.10;0.10;;;;;;;20.59;54.88;101483.41;4993586;28;20046;-89
2021/08/03 08:24:01;;;;;;;0.10;0.10;;;;;;;20.69;54.80;101482.81;4994506;28;20033;-94
2021/08/03 08:26:27;;;;;;;0.10;0.10;;;;;;;20.82;54.49;101480.38;4995413;28;20528;-84
2021/08/03 08:28:53;;;;;;;0.10;0.10;;;;;;;20.93;54.78;101471.72;5011241;28;20075;-87
2021/08/03 08:31:19;;;;;;;0.10;0.10;;;;;;;21.11;54.35;101475.25;5014374;28;20105;-89
2021/08/03 08:33:45;;;;;;;0.00;0.00;;;;;;;21.32;54.37;101473.19;5013747;28;20033;-82
2021/08/03 08:36:12;;;;;;;0.10;0.10;;;;;;;21.55;53.67;101468.34;5013655;28;20080;-84
2021/08/03 08:38:44;;;;;;;0.10;0.10;;;;;;;21.86;53.09;101469.31;5013935;28;20552;-92
2021/08/03 08:41:13;;;;;;;0.10;0.10;;;;;;;21.97;52.49;101469.56;5014895;28;20030;-86
2021/08/03 08:43:41;;;;;;;0.10;0.10;;;;;;;22.13;53.11;101480.34;5011537;28;20064;-84
2021/08/03 08:46:08;;;;;;;0.20;0.20;;;;;;;22.34;52.16;101476.44;5002868;28;20034;-87
2021/08/03 08:48:36;;;;;;;0.32;0.30;;;;;;;22.51;50.98;101468.25;5015129;28;20025;-93
2021/08/03 08:51:06;;;;;;;0.10;0.10;;;;;;;22.60;51.32;101461.41;5015904;28;20026;-94
2021/08/03 08:53:34;;;;;;;0.10;0.10;;;;;;;22.68;51.30;101460.94;5001048;28;20033;-95
2021/08/03 08:56:07;;;;;;;0.10;0.10;;;;;;;22.98;50.73;101462.69;5009442;28;20095;-90
2021/08/03 08:58:56;;;;;;;0.10;0.10;;;;;;;22.99;50.12;101462.63;5013572;28;20485;-91
2021/08/03 09:01:21;;;;;;;2.17;0.65;;;;;;;22.88;49.24;101465.09;5010593;28;20038;-91
2021/08/03 09:03:48;;;;;;;0.10;0.10;;;;;;;22.80;48.78;101468.28;5002531;28;20575;-87
2021/08/03 09:06:20;;;;;;;0.10;0.10;;;;;;;22.73;49.27;101466.91;5004043;28;20033;-85
2021/08/03 09:08:47;;;;;;;0.10;0.10;;;;;;;22.56;49.43;101463.41;4993786;28;20018;-88
2021/08/03 09:11:16;;;;;;;0.10;0.10;;;;;;;22.52;50.38;101469.97;4993854;28;20050;-87
2021/08/03 09:14:00;;;;;;;0.10;0.10;;;;;;;22.43;48.83;101473.22;4993569;28;20037;-86
2021/08/03 09:16:42;;;;;;;1.35;0.75;;;;;;;22.29;49.42;101469.50;5001679;28;20045;-88
2021/08/03 09:19:31;;;;;;;0.10;0.10;;;;;;;22.52;49.88;101464.59;5014453;28;20030;-96
2021/08/03 09:26:51;;;;;;;0.10;0.10;;;;;;;22.94;48.74;101468.31;5111034;27;20387;-96
2021/08/03 09:28:08;;;;;;;0.10;0.10;;;;;;;23.06;48.56;101457.69;5081760;28;20035;-94
2021/08/03 09:30:37;;;;;;;0.10;0.10;;;;;;;23.18;48.06;101461.47;5089051;28;20028;-88
2021/08/03 09:33:05;;;;;;;0.20;0.20;;;;;;;23.31;47.99;101462.41;5089372;28;20032;-86
2021/08/03 09:35:44;;;;;;;0.10;0.10;;;;;;;23.46;46.11;101460.56;5088821;28;20024;-92
2021/08/03 09:38:19;;;;;;;0.05;0.05;;;;;;;23.59;47.66;101450.69;5088837;28;20042;-91
2021/08/03 09:40:48;;;;;;;0.05;0.05;;;;;;;23.54;47.72;101457.34;5088830;28;20383;-89
2021/08/03 09:43:27;;;;;;;0.20;0.20;;;;;;;23.61;47.88;101463.25;5088710;28;20043;-93
2021/08/03 09:48:35;;;;;;;0.10;0.10;;;;;;;23.54;45.62;101452.84;5075355;28;20419;-92
2021/08/03 09:59:09;;;;;;;0.00;0.00;;;;;;;23.62;47.52;101443.34;5070792;27;20510;-90
2021/08/03 10:01:39;;;;;;;0.10;0.10;;;;;;;23.77;46.73;101442.31;5068751;28;20036;-91
2021/08/03 10:04:08;;;;;;;0.10;0.10;;;;;;;24.10;46.92;101443.78;5069096;28;20032;-90
2021/08/03 10:06:36;;;;;;;0.20;0.20;;;;;;;24.25;45.87;101440.97;5069036;28;20035;-90
2021/08/03 10:09:07;;;;;;;0.10;0.10;;;;;;;24.40;45.80;101445.38;5068633;28;20111;-92
2021/08/03 10:11:34;;;;;;;0.20;0.20;;;;;;;24.55;45.29;101444.28;5068827;28;20479;-91
2021/08/03 10:14:00;;;;;;;0.10;0.10;;;;;;;24.75;45.36;101442.06;5068577;28;20554;-87
2021/08/03 10:16:29;;;;;;;0.10;0.10;;;;;;;24.90;44.17;101436.50;5068495;28;20131;-91
2021/08/03 10:28:30;;;;;;;0.10;0.10;;;;;;;25.33;43.61;101438.81;5473062;22;20045;-85
2021/08/03 10:30:56;;;;;;;0.15;0.15;;;;;;;25.26;42.61;101433.00;5025407;28;20042;-93
2021/08/03 10:33:44;;;;;;;0.10;0.10;;;;;;;25.18;43.41;101435.38;5036377;28;20025;-92
2021/08/03 10:39:20;;;;;;;0.10;0.10;;;;;;;24.58;43.56;101442.34;5098243;27;20394;-91
2021/08/03 10:42:07;;;;;;;0.10;0.10;;;;;;;24.43;44.14;101439.72;5097111;28;20602;-92
2021/08/03 10:50:28;;;;;;;0.10;0.10;;;;;;;23.95;45.08;101428.56;5080589;27;20407;-88
2021/08/03 10:52:57;;;;;;;0.47;0.47;;;;;;;23.62;44.90;101437.94;5065543;28;20067;-90
2021/08/03 10:55:44;;;;;;;0.10;0.10;;;;;;;23.45;45.79;101436.34;5067180;28;20029;-92
2021/08/03 11:00:57;;;;;;;0.10;0.10;;;;;;;23.47;46.10;101437.09;5089030;28;20382;-91
2021/08/03 11:06:47;;;;;;;0.10;0.10;;;;;;;23.70;46.50;101419.34;5103333;27;20400;-96
2021/08/03 11:09:33;;;;;;;0.05;0.05;;;;;;;23.83;46.10;101420.28;5105192;28;20039;-96
2021/08/03 11:12:39;;;;;;;0.20;0.20;;;;;;;24.05;45.37;101422.44;5106130;28;20024;-95
2021/08/03 11:24:09;;;;;;;0.10;0.10;;;;;;;23.88;45.50;101422.69;5079782;27;20414;-95
2021/08/03 11:26:40;;;;;;;0.10;0.10;;;;;;;23.73;46.05;101417.31;5067428;28;20029;-91
2021/08/03 11:31:53;;;;;;;0.10;0.10;;;;;;;23.65;46.38;101410.66;5109960;27;20400;-83
2021/08/03 11:48:25;;;;;;;0.10;0.10;;;;;;;23.87;45.98;101399.28;5006324;28;20175;-94
2021/08/03 11:53:28;;;;;;;0.00;0.00;;;;;;;24.10;46.04;101394.16;5204136;22;20053;-96
2021/08/03 11:55:56;;;;;;;0.10;0.10;;;;;;;24.17;45.52;101396.34;5050553;28;20120;-95
2021/08/03 11:58:25;;;;;;;0.10;0.10;;;;;;;24.30;45.57;101401.81;5056041;28;20450;-96
2021/08/03 12:00:59;;;;;;;0.20;0.20;;;;;;;24.41;45.65;101390.19;5056676;28;20037;-96
2021/08/03 12:03:30;;;;;;;0.10;0.10;;;;;;;24.55;45.10;101400.94;5059967;28;20037;-96
2021/08/03 12:06:01;;;;;;;0.10;0.10;;;;;;;24.71;45.05;101391.75;5060514;28;20029;-96
2021/08/03 12:08:36;;;;;;;0.38;0.38;;;;;;;24.82;44.05;101391.88;5060832;28;20029;-96
2021/08/03 12:11:05;;;;;;;0.10;0.10;;;;;;;24.90;44.54;101387.72;5060620;28;20025;-96
2021/08/03 12:16:30;;;;;;;0.10;0.10;;;;;;;25.10;43.85;101387.16;5289050;22;20040;-96
2021/08/03 12:19:35;;;;;;;0.10;0.10;;;;;;;25.46;43.90;101374.59;5261545;22;20049;-96
2021/08/03 12:22:03;;;;;;;0.10;0.10;;;;;;;25.51;43.17;101372.38;5058025;28;20048;-90
2021/08/03 12:24:31;;;;;;;0.10;0.10;;;;;;;25.54;42.65;101370.44;5061348;28;20044;-96
2021/08/03 12:27:14;;;;;;;0.30;0.30;;;;;;;25.83;43.38;101371.81;5062313;28;20029;-96
2021/08/03 12:29:44;;;;;;;0.10;0.10;;;;;;;25.87;42.71;101375.16;5041308;28;20401;-96
2021/08/03 12:32:10;;;;;;;0.10;0.10;;;;;;;25.96;41.91;101370.88;5043156;28;20030;-96
2021/08/03 12:34:41;;;;;;;0.00;0.00;;;;;;;26.03;42.09;101374.81;5042233;28;20042;-93
2021/08/03 12:50:00;;;;;;;0.10;0.10;;;;;;;25.57;42.19;101371.06;5007421;28;20042;-96
2021/08/03 12:52:26;;;;;;;0.10;0.10;;;;;;;25.42;43.09;101364.97;5006883;28;20477;-96
2021/08/03 12:55:01;;;;;;;0.10;0.10;;;;;;;25.58;43.27;101367.34;5003928;28;20544;-92
2021/08/03 12:57:52;;;;;;;0.10;0.10;;;;;;;25.70;43.47;101371.00;5003206;28;20026;-96
2021/08/03 13:01:10;;;;;;;0.00;0.00;;;;;;;25.96;41.56;101376.28;5009636;28;20074;-96
2021/08/03 13:03:54;;;;;;;0.10;0.10;;;;;;;26.13;41.49;101378.59;5025138;28;20029;-96
2021/08/03 13:06:20;;;;;;;0.15;0.15;;;;;;;26.36;41.94;101373.22;4998255;28;20030;-89
2021/08/03 13:08:47;;;;;;;0.10;0.10;;;;;;;26.54;41.46;101376.31;4996821;28;20026;-92
2021/08/03 13:11:16;;;;;;;1.10;0.57;;;;;;;26.80;41.81;101374.28;4995519;28;20485;-86
2021/08/03 13:13:43;;;;;;;0.17;0.17;;;;;;;26.88;39.70;101368.22;4995864;28;20027;-87
2021/08/03 13:16:10;;;;;;;0.10;0.10;;;;;;;26.82;40.57;101375.97;4995791;28;20118;-87
2021/08/03 13:18:38;;;;;;;0.38;0.38;;;;;;;26.62;40.22;101373.00;4993863;28;20038;-89